sensor_id;sensor_type;location;lat;lon;timestamp;pressure;altitude;pressure_sealevel;temperature;humidity
35806;BME280;21925;44.608;11.580;2023-12-14T00:02:20;100781.81;;;7.84;100.00
35806;BME280;21925;44.608;11.580;2023-12-14T00:04:45;100782.16;;;7.83;100.00
35806;BME280;21925;44.608;11.580;2023-12-14T00:07:11;100801.31;;;7.74;100.00
35806;BME280;21925;44.608;11.580;2023-12-14T00:09:40;100796.19;;;7.64;100.00
35806;BME280;21925;44.608;11.580;2023-12-14T00:12:05;100805.66;;;7.75;100.00
35806;BME280;21925;44.608;11.580;2023-12-14T00:14:31;100809.00;;;7.72;100.00
35806;BME280;21925;44.608;11.580;2023-12-14T00:16:58;100810.28;;;7.75;100.00
35806;BME280;21925;44.608;11.580;2023-12-14T00:19:24;100823.44;;;7.81;100.00
35806;BME280;21925;44.608;11.580;2023-12-14T00:21:52;100829.81;;;7.85;100.00
35806;BME280;21925;44.608;11.580;2023-12-14T00:24:17;100828.00;;;8.06;100.00
35806;BME280;21925;44.608;11.580;2023-12-14T00:26:43;100828.13;;;8.09;100.00
35806;BME280;21925;44.608;11.580;2023-12-14T00:29:09;100835.50;;;8.09;100.00
35806;BME280;21925;44.608;11.580;2023-12-14T00:31:34;100827.78;;;8.11;100.00
35806;BME280;21925;44.608;11.580;2023-12-14T00:34:01;100821.47;;;7.90;100.00
35806;BME280;21925;44.608;11.580;2023-12-14T00:36:28;100834.09;;;8.03;100.00
35806;BME280;21925;44.608;11.580;2023-12-14T00:38:54;100839.22;;;8.04;100.00
35806;BME280;21925;44.608;11.580;2023-12-14T00:41:23;100831.03;;;8.04;100.00
35806;BME280;21925;44.608;11.580;2023-12-14T00:43:49;100821.41;;;8.07;100.00
35806;BME280;21925;44.608;11.580;2023-12-14T00:46:15;100821.53;;;8.10;100.00
35806;BME280;21925;44.608;11.580;2023-12-14T00:48:41;100824.50;;;7.97;100.00
35806;BME280;21925;44.608;11.580;2023-12-14T00:51:07;100826.25;;;7.93;100.00
35806;BME280;21925;44.608;11.580;2023-12-14T00:53:32;100816.81;;;7.90;100.00
35806;BME280;21925;44.608;11.580;2023-12-14T00:55:58;100838.91;;;8.06;100.00
35806;BME280;21925;44.608;11.580;2023-12-14T00:58:23;100828.28;;;8.04;100.00
35806;BME280;21925;44.608;11.580;2023-12-14T01:00:49;100839.84;;;8.10;100.00
35806;BME280;21925;44.608;11.580;2023-12-14T01:03:15;100829.75;;;8.02;100.00
35806;BME280;21925;44.608;11.580;2023-12-14T01:05:40;100840.81;;;8.05;100.00
35806;BME280;21925;44.608;11.580;2023-12-14T01:08:06;100845.97;;;8.07;100.00
35806;BME280;21925;44.608;11.580;2023-12-14T01:10:32;100827.09;;;7.85;100.00
35806;BME280;21925;44.608;11.580;2023-12-14T01:12:58;100826.75;;;7.95;100.00
35806;BME280;21925;44.608;11.580;2023-12-14T01:15:24;100825.72;;;8.08;100.00
35806;BME280;21925;44.608;11.580;2023-12-14T01:17:49;100814.78;;;8.08;100.00
35806;BME280;21925;44.608;11.580;2023-12-14T01:20:27;100814.34;;;8.06;100.00
35806;BME280;21925;44.608;11.580;2023-12-14T01:22:53;100819.78;;;8.06;100.00
35806;BME280;21925;44.608;11.580;2023-12-14T01:25:19;100799.41;;;8.03;100.00
35806;BME280;21925;44.608;11.580;2023-12-14T01:27:45;100812.06;;;8.08;100.00
35806;BME280;21925;44.608;11.580;2023-12-14T01:30:10;100817.88;;;8.15;100.00
35806;BME280;21925;44.608;11.580;2023-12-14T01:32:37;100831.31;;;8.20;100.00
35806;BME280;21925;44.608;11.580;2023-12-14T01:35:03;100818.00;;;8.10;100.00
35806;BME280;21925;44.608;11.580;2023-12-14T01:37:29;100830.34;;;8.16;100.00
35806;BME280;21925;44.608;11.580;2023-12-14T01:39:54;100833.84;;;8.25;100.00
35806;BME280;21925;44.608;11.580;2023-12-14T01:42:20;100810.41;;;8.24;100.00
35806;BME280;21925;44.608;11.580;2023-12-14T01:44:45;100821.78;;;8.34;100.00
35806;BME280;21925;44.608;11.580;2023-12-14T01:47:11;100807.66;;;8.24;100.00
35806;BME280;21925;44.608;11.580;2023-12-14T01:49:37;100809.03;;;8.09;100.00
35806;BME280;21925;44.608;11.580;2023-12-14T01:52:03;100827.75;;;8.28;100.00
35806;BME280;21925;44.608;11.580;2023-12-14T01:54:30;100841.03;;;8.38;100.00
35806;BME280;21925;44.608;11.580;2023-12-14T01:56:56;100848.38;;;8.46;100.00
35806;BME280;21925;44.608;11.580;2023-12-14T01:59:22;100845.25;;;8.27;100.00
35806;BME280;21925;44.608;11.580;2023-12-14T02:01:54;100845.53;;;8.34;100.00
35806;BME280;21925;44.608;11.580;2023-12-14T02:04:23;100833.72;;;8.21;100.00
35806;BME280;21925;44.608;11.580;2023-12-14T02:06:49;100820.09;;;8.13;100.00
35806;BME280;21925;44.608;11.580;2023-12-14T02:09:15;100845.75;;;8.29;100.00
35806;BME280;21925;44.608;11.580;2023-12-14T02:11:42;100849.59;;;8.28;100.00
35806;BME280;21925;44.608;11.580;2023-12-14T02:14:11;100832.97;;;8.41;100.00
35806;BME280;21925;44.608;11.580;2023-12-14T02:16:37;100825.72;;;8.16;100.00
35806;BME280;21925;44.608;11.580;2023-12-14T02:19:06;100834.69;;;8.17;100.00
35806;BME280;21925;44.608;11.580;2023-12-14T02:21:31;100840.03;;;8.05;100.00
35806;BME280;21925;44.608;11.580;2023-12-14T02:23:57;100841.44;;;8.11;100.00
35806;BME280;21925;44.608;11.580;2023-12-14T02:26:28;100836.81;;;8.03;100.00
35806;BME280;21925;44.608;11.580;2023-12-14T02:28:54;100840.66;;;8.10;100.00
35806;BME280;21925;44.608;11.580;2023-12-14T02:31:23;100849.16;;;8.09;100.00
35806;BME280;21925;44.608;11.580;2023-12-14T02:33:48;100835.06;;;7.98;100.00
35806;BME280;21925;44.608;11.580;2023-12-14T02:36:14;100838.09;;;8.05;100.00
35806;BME280;21925;44.608;11.580;2023-12-14T02:38:40;100829.31;;;7.91;100.00
35806;BME280;21925;44.608;11.580;2023-12-14T02:41:06;100838.63;;;7.99;100.00
35806;BME280;21925;44.608;11.580;2023-12-14T02:43:32;100849.97;;;8.09;100.00
35806;BME280;21925;44.608;11.580;2023-12-14T02:45:58;100866.84;;;8.11;100.00
35806;BME280;21925;44.608;11.580;2023-12-14T02:48:28;100873.53;;;8.31;100.00
35806;BME280;21925;44.608;11.580;2023-12-14T02:50:56;100867.59;;;8.20;100.00
35806;BME280;21925;44.608;11.580;2023-12-14T02:53:22;100858.50;;;8.16;100.00
35806;BME280;21925;44.608;11.580;2023-12-14T02:55:48;100861.56;;;8.15;100.00
35806;BME280;21925;44.608;11.580;2023-12-14T02:58:19;100874.06;;;8.16;100.00
35806;BME280;21925;44.608;11.580;2023-12-14T03:00:44;100874.69;;;8.13;100.00
35806;BME280;21925;44.608;11.580;2023-12-14T03:03:11;100874.56;;;8.09;100.00
35806;BME280;21925;44.608;11.580;2023-12-14T03:05:36;100894.59;;;8.13;100.00
35806;BME280;21925;44.608;11.580;2023-12-14T03:08:02;100877.75;;;8.20;100.00
35806;BME280;21925;44.608;11.580;2023-12-14T03:10:28;100884.22;;;8.07;100.00
35806;BME280;21925;44.608;11.580;2023-12-14T03:12:53;100867.81;;;8.07;100.00
35806;BME280;21925;44.608;11.580;2023-12-14T03:15:19;100880.16;;;8.04;100.00
35806;BME280;21925;44.608;11.580;2023-12-14T03:17:44;100866.38;;;8.01;100.00
35806;BME280;21925;44.608;11.580;2023-12-14T03:20:12;100876.66;;;8.04;100.00
35806;BME280;21925;44.608;11.580;2023-12-14T03:22:40;100896.06;;;8.11;100.00
35806;BME280;21925;44.608;11.580;2023-12-14T03:25:06;100901.19;;;8.12;100.00
35806;BME280;21925;44.608;11.580;2023-12-14T03:27:32;100899.28;;;8.04;100.00
35806;BME280;21925;44.608;11.580;2023-12-14T03:29:57;100892.41;;;8.07;100.00
35806;BME280;21925;44.608;11.580;2023-12-14T03:32:23;100889.78;;;8.19;100.00
35806;BME280;21925;44.608;11.580;2023-12-14T03:34:49;100885.28;;;8.23;100.00
35806;BME280;21925;44.608;11.580;2023-12-14T03:37:14;100879.34;;;8.21;100.00
35806;BME280;21925;44.608;11.580;2023-12-14T03:39:41;100884.34;;;8.19;100.00
35806;BME280;21925;44.608;11.580;2023-12-14T03:42:06;100881.94;;;8.17;100.00
35806;BME280;21925;44.608;11.580;2023-12-14T03:44:32;100862.38;;;8.07;100.00
35806;BME280;21925;44.608;11.580;2023-12-14T03:46:58;100896.66;;;8.33;100.00
35806;BME280;21925;44.608;11.580;2023-12-14T03:49:25;100896.31;;;8.35;100.00
35806;BME280;21925;44.608;11.580;2023-12-14T03:51:51;100892.94;;;8.38;100.00
35806;BME280;21925;44.608;11.580;2023-12-14T03:54:17;100895.84;;;8.33;100.00
35806;BME280;21925;44.608;11.580;2023-12-14T03:56:43;100887.84;;;8.28;100.00
35806;BME280;21925;44.608;11.580;2023-12-14T03:59:08;100883.34;;;8.23;100.00
35806;BME280;21925;44.608;11.580;2023-12-14T04:01:34;100899.78;;;8.15;100.00
35806;BME280;21925;44.608;11.580;2023-12-14T04:04:02;100891.09;;;8.13;100.00
35806;BME280;21925;44.608;11.580;2023-12-14T04:06:28;100877.28;;;8.01;100.00
35806;BME280;21925;44.608;11.580;2023-12-14T04:08:53;100899.13;;;8.18;100.00
35806;BME280;21925;44.608;11.580;2023-12-14T04:11:21;100889.66;;;8.15;100.00
35806;BME280;21925;44.608;11.580;2023-12-14T04:13:47;100892.22;;;8.12;100.00
35806;BME280;21925;44.608;11.580;2023-12-14T04:16:15;100892.69;;;8.05;100.00
35806;BME280;21925;44.608;11.580;2023-12-14T04:18:42;100885.31;;;8.06;100.00
35806;BME280;21925;44.608;11.580;2023-12-14T04:21:08;100884.97;;;8.16;100.00
35806;BME280;21925;44.608;11.580;2023-12-14T04:23:34;100904.72;;;8.21;100.00
35806;BME280;21925;44.608;11.580;2023-12-14T04:26:00;100897.16;;;8.27;100.00
35806;BME280;21925;44.608;11.580;2023-12-14T04:28:26;100895.69;;;8.29;100.00
35806;BME280;21925;44.608;11.580;2023-12-14T04:30:51;100890.44;;;8.16;100.00
35806;BME280;21925;44.608;11.580;2023-12-14T04:33:17;100898.97;;;8.23;100.00
35806;BME280;21925;44.608;11.580;2023-12-14T04:35:42;100918.31;;;8.38;100.00
35806;BME280;21925;44.608;11.580;2023-12-14T04:38:08;100930.22;;;8.34;100.00
35806;BME280;21925;44.608;11.580;2023-12-14T04:40:34;100931.88;;;8.26;100.00
35806;BME280;21925;44.608;11.580;2023-12-14T04:43:00;100936.53;;;8.26;100.00
35806;BME280;21925;44.608;11.580;2023-12-14T04:45:25;100942.16;;;8.21;100.00
35806;BME280;21925;44.608;11.580;2023-12-14T04:47:51;100951.16;;;8.13;100.00
35806;BME280;21925;44.608;11.580;2023-12-14T04:50:16;100956.94;;;8.20;100.00
35806;BME280;21925;44.608;11.580;2023-12-14T04:52:42;100965.16;;;8.20;100.00
35806;BME280;21925;44.608;11.580;2023-12-14T04:55:10;100955.94;;;8.33;100.00
35806;BME280;21925;44.608;11.580;2023-12-14T04:57:36;100959.41;;;8.50;100.00
35806;BME280;21925;44.608;11.580;2023-12-14T05:00:03;100961.19;;;8.46;100.00
35806;BME280;21925;44.608;11.580;2023-12-14T05:02:31;100956.41;;;8.43;100.00
35806;BME280;21925;44.608;11.580;2023-12-14T05:04:57;100959.44;;;8.42;100.00
35806;BME280;21925;44.608;11.580;2023-12-14T05:07:23;100952.91;;;8.26;100.00
35806;BME280;21925;44.608;11.580;2023-12-14T05:09:49;100967.84;;;8.28;100.00
35806;BME280;21925;44.608;11.580;2023-12-14T05:12:15;100982.59;;;8.36;100.00
35806;BME280;21925;44.608;11.580;2023-12-14T05:14:43;100976.44;;;8.56;100.00
35806;BME280;21925;44.608;11.580;2023-12-14T05:17:09;100994.06;;;8.67;100.00
35806;BME280;21925;44.608;11.580;2023-12-14T05:19:34;100989.78;;;8.49;100.00
35806;BME280;21925;44.608;11.580;2023-12-14T05:22:00;100992.84;;;8.56;100.00
35806;BME280;21925;44.608;11.580;2023-12-14T05:24:26;101008.56;;;8.59;100.00
35806;BME280;21925;44.608;11.580;2023-12-14T05:26:52;100995.16;;;8.28;100.00
35806;BME280;21925;44.608;11.580;2023-12-14T05:29:17;100989.03;;;8.40;100.00
35806;BME280;21925;44.608;11.580;2023-12-14T05:31:43;101010.50;;;8.50;100.00
35806;BME280;21925;44.608;11.580;2023-12-14T05:34:09;100997.38;;;8.43;100.00
35806;BME280;21925;44.608;11.580;2023-12-14T05:36:34;101021.44;;;8.58;100.00
35806;BME280;21925;44.608;11.580;2023-12-14T05:39:00;101032.31;;;8.67;100.00
35806;BME280;21925;44.608;11.580;2023-12-14T05:41:26;101020.91;;;8.65;100.00
35806;BME280;21925;44.608;11.580;2023-12-14T05:43:51;101033.81;;;8.93;100.00
35806;BME280;21925;44.608;11.580;2023-12-14T05:46:23;101031.31;;;8.79;100.00
35806;BME280;21925;44.608;11.580;2023-12-14T05:48:50;101021.19;;;8.80;100.00
35806;BME280;21925;44.608;11.580;2023-12-14T05:51:32;101041.84;;;8.98;100.00
35806;BME280;21925;44.608;11.580;2023-12-14T05:53:58;101037.56;;;9.17;100.00
35806;BME280;21925;44.608;11.580;2023-12-14T05:56:27;101042.66;;;9.27;100.00
35806;BME280;21925;44.608;11.580;2023-12-14T05:58:53;101032.75;;;9.43;100.00
35806;BME280;21925;44.608;11.580;2023-12-14T06:01:19;101036.75;;;9.46;100.00
35806;BME280;21925;44.608;11.580;2023-12-14T06:03:45;101009.75;;;9.36;100.00
35806;BME280;21925;44.608;11.580;2023-12-14T06:06:12;101044.75;;;9.50;100.00
35806;BME280;21925;44.608;11.580;2023-12-14T06:08:40;101029.91;;;9.31;100.00
35806;BME280;21925;44.608;11.580;2023-12-14T06:11:06;101047.91;;;9.41;100.00
35806;BME280;21925;44.608;11.580;2023-12-14T06:13:33;101045.28;;;9.44;100.00
35806;BME280;21925;44.608;11.580;2023-12-14T06:16:00;101027.44;;;9.38;100.00
35806;BME280;21925;44.608;11.580;2023-12-14T06:18:26;101049.69;;;9.57;100.00
35806;BME280;21925;44.608;11.580;2023-12-14T06:20:52;101047.91;;;9.61;100.00
35806;BME280;21925;44.608;11.580;2023-12-14T06:23:18;101027.31;;;9.55;100.00
35806;BME280;21925;44.608;11.580;2023-12-14T06:25:44;101043.34;;;9.65;100.00
35806;BME280;21925;44.608;11.580;2023-12-14T06:28:09;101018.97;;;9.31;100.00
35806;BME280;21925;44.608;11.580;2023-12-14T06:30:35;101035.00;;;9.41;100.00
35806;BME280;21925;44.608;11.580;2023-12-14T06:33:00;101047.16;;;9.52;100.00
35806;BME280;21925;44.608;11.580;2023-12-14T06:35:26;101049.03;;;9.60;100.00
35806;BME280;21925;44.608;11.580;2023-12-14T06:37:52;101044.22;;;9.57;100.00
35806;BME280;21925;44.608;11.580;2023-12-14T06:40:17;101059.75;;;9.45;100.00
35806;BME280;21925;44.608;11.580;2023-12-14T06:42:44;101045.78;;;9.17;100.00
35806;BME280;21925;44.608;11.580;2023-12-14T06:45:10;101067.50;;;9.14;100.00
35806;BME280;21925;44.608;11.580;2023-12-14T06:47:36;101059.78;;;9.16;100.00
35806;BME280;21925;44.608;11.580;2023-12-14T06:50:01;101080.41;;;9.42;100.00
35806;BME280;21925;44.608;11.580;2023-12-14T06:52:27;101094.34;;;9.49;100.00
35806;BME280;21925;44.608;11.580;2023-12-14T06:54:52;101091.72;;;9.61;100.00
35806;BME280;21925;44.608;11.580;2023-12-14T06:57:18;101101.97;;;9.64;100.00
35806;BME280;21925;44.608;11.580;2023-12-14T06:59:43;101096.63;;;9.67;100.00
35806;BME280;21925;44.608;11.580;2023-12-14T07:02:09;101103.22;;;9.75;100.00
35806;BME280;21925;44.608;11.580;2023-12-14T07:04:35;101100.63;;;9.49;100.00
35806;BME280;21925;44.608;11.580;2023-12-14T07:07:02;101110.41;;;9.59;100.00
35806;BME280;21925;44.608;11.580;2023-12-14T07:09:27;101114.03;;;9.71;100.00
35806;BME280;21925;44.608;11.580;2023-12-14T07:11:53;101104.00;;;9.75;100.00
35806;BME280;21925;44.608;11.580;2023-12-14T07:14:19;101114.16;;;9.75;100.00
35806;BME280;21925;44.608;11.580;2023-12-14T07:16:45;101087.44;;;9.72;100.00
35806;BME280;21925;44.608;11.580;2023-12-14T07:19:12;101101.06;;;9.80;100.00
35806;BME280;21925;44.608;11.580;2023-12-14T07:21:37;101107.44;;;9.93;100.00
35806;BME280;21925;44.608;11.580;2023-12-14T07:24:03;101103.25;;;9.87;100.00
35806;BME280;21925;44.608;11.580;2023-12-14T07:26:29;101122.84;;;9.77;100.00
35806;BME280;21925;44.608;11.580;2023-12-14T07:28:54;101119.44;;;9.80;100.00
35806;BME280;21925;44.608;11.580;2023-12-14T07:31:20;101133.66;;;9.94;100.00
35806;BME280;21925;44.608;11.580;2023-12-14T07:33:46;101141.72;;;9.99;100.00
35806;BME280;21925;44.608;11.580;2023-12-14T07:36:11;101133.00;;;9.97;100.00
35806;BME280;21925;44.608;11.580;2023-12-14T07:38:37;101137.22;;;9.94;100.00
35806;BME280;21925;44.608;11.580;2023-12-14T07:41:03;101125.34;;;9.61;100.00
35806;BME280;21925;44.608;11.580;2023-12-14T07:43:29;101123.28;;;9.30;100.00
35806;BME280;21925;44.608;11.580;2023-12-14T07:45:54;101157.84;;;9.34;100.00
35806;BME280;21925;44.608;11.580;2023-12-14T07:48:20;101158.44;;;9.48;100.00
35806;BME280;21925;44.608;11.580;2023-12-14T07:50:45;101153.00;;;9.68;100.00
35806;BME280;21925;44.608;11.580;2023-12-14T07:53:13;101165.59;;;9.90;100.00
35806;BME280;21925;44.608;11.580;2023-12-14T07:55:39;101171.34;;;9.97;100.00
35806;BME280;21925;44.608;11.580;2023-12-14T07:58:04;101167.50;;;9.98;100.00
35806;BME280;21925;44.608;11.580;2023-12-14T08:00:30;101159.91;;;9.95;100.00
35806;BME280;21925;44.608;11.580;2023-12-14T08:02:56;101144.94;;;9.72;100.00
35806;BME280;21925;44.608;11.580;2023-12-14T08:05:21;101163.25;;;9.80;100.00
35806;BME280;21925;44.608;11.580;2023-12-14T08:07:47;101164.56;;;9.45;100.00
35806;BME280;21925;44.608;11.580;2023-12-14T08:10:13;101177.72;;;9.60;100.00
35806;BME280;21925;44.608;11.580;2023-12-14T08:12:39;101162.97;;;9.44;100.00
35806;BME280;21925;44.608;11.580;2023-12-14T08:15:04;101180.69;;;9.38;100.00
35806;BME280;21925;44.608;11.580;2023-12-14T08:17:30;101189.09;;;9.33;100.00
35806;BME280;21925;44.608;11.580;2023-12-14T08:19:56;101178.84;;;9.22;100.00
35806;BME280;21925;44.608;11.580;2023-12-14T08:22:22;101192.16;;;9.32;100.00
35806;BME280;21925;44.608;11.580;2023-12-14T08:24:48;101195.19;;;9.30;100.00
35806;BME280;21925;44.608;11.580;2023-12-14T08:27:14;101195.66;;;9.41;100.00
35806;BME280;21925;44.608;11.580;2023-12-14T08:29:40;101178.34;;;9.20;100.00
35806;BME280;21925;44.608;11.580;2023-12-14T08:32:05;101210.84;;;9.67;100.00
35806;BME280;21925;44.608;11.580;2023-12-14T08:34:31;101222.72;;;9.71;100.00
35806;BME280;21925;44.608;11.580;2023-12-14T08:36:57;101208.13;;;9.58;100.00
35806;BME280;21925;44.608;11.580;2023-12-14T08:39:23;101231.19;;;9.86;100.00
35806;BME280;21925;44.608;11.580;2023-12-14T08:41:49;101235.00;;;9.94;100.00
35806;BME280;21925;44.608;11.580;2023-12-14T08:44:15;101229.38;;;9.90;100.00
35806;BME280;21925;44.608;11.580;2023-12-14T08:46:46;101216.59;;;9.74;100.00
35806;BME280;21925;44.608;11.580;2023-12-14T08:49:13;101224.44;;;9.84;100.00
35806;BME280;21925;44.608;11.580;2023-12-14T08:51:43;101237.47;;;9.87;100.00
35806;BME280;21925;44.608;11.580;2023-12-14T08:54:09;101250.72;;;9.85;100.00
35806;BME280;21925;44.608;11.580;2023-12-14T08:56:36;101245.50;;;9.92;100.00
35806;BME280;21925;44.608;11.580;2023-12-14T08:59:02;101247.44;;;10.00;100.00
35806;BME280;21925;44.608;11.580;2023-12-14T09:01:29;101267.66;;;10.16;100.00
35806;BME280;21925;44.608;11.580;2023-12-14T09:03:55;101256.97;;;10.23;100.00
35806;BME280;21925;44.608;11.580;2023-12-14T09:06:24;101249.44;;;10.11;100.00
35806;BME280;21925;44.608;11.580;2023-12-14T09:08:50;101264.19;;;10.27;100.00
35806;BME280;21925;44.608;11.580;2023-12-14T09:11:18;101277.53;;;10.29;100.00
35806;BME280;21925;44.608;11.580;2023-12-14T09:13:44;101278.63;;;10.36;100.00
35806;BME280;21925;44.608;11.580;2023-12-14T09:16:10;101290.72;;;10.35;100.00
35806;BME280;21925;44.608;11.580;2023-12-14T09:18:39;101287.13;;;10.43;100.00
35806;BME280;21925;44.608;11.580;2023-12-14T09:21:04;101289.41;;;10.41;100.00
35806;BME280;21925;44.608;11.580;2023-12-14T09:23:33;101297.84;;;10.56;100.00
35806;BME280;21925;44.608;11.580;2023-12-14T09:26:00;101302.59;;;10.47;100.00
35806;BME280;21925;44.608;11.580;2023-12-14T09:28:26;101306.84;;;10.36;100.00
35806;BME280;21925;44.608;11.580;2023-12-14T09:30:57;101311.97;;;10.38;100.00
35806;BME280;21925;44.608;11.580;2023-12-14T09:33:36;101313.44;;;10.35;100.00
35806;BME280;21925;44.608;11.580;2023-12-14T09:36:01;101297.59;;;10.21;100.00
35806;BME280;21925;44.608;11.580;2023-12-14T09:38:27;101335.34;;;10.44;100.00
35806;BME280;21925;44.608;11.580;2023-12-14T09:40:53;101290.78;;;10.27;100.00
35806;BME280;21925;44.608;11.580;2023-12-14T09:43:20;101340.72;;;10.61;100.00
35806;BME280;21925;44.608;11.580;2023-12-14T09:45:47;101332.91;;;10.42;100.00
35806;BME280;21925;44.608;11.580;2023-12-14T09:48:15;101326.09;;;10.28;100.00
35806;BME280;21925;44.608;11.580;2023-12-14T09:50:41;101322.94;;;10.38;100.00
35806;BME280;21925;44.608;11.580;2023-12-14T09:53:11;101317.44;;;10.18;100.00
35806;BME280;21925;44.608;11.580;2023-12-14T09:55:38;101341.09;;;10.51;100.00
35806;BME280;21925;44.608;11.580;2023-12-14T09:58:03;101340.69;;;10.40;100.00
35806;BME280;21925;44.608;11.580;2023-12-14T10:00:36;101340.28;;;10.50;100.00
35806;BME280;21925;44.608;11.580;2023-12-14T10:05:46;101355.00;;;10.66;100.00
35806;BME280;21925;44.608;11.580;2023-12-14T10:08:12;101333.22;;;10.49;100.00
35806;BME280;21925;44.608;11.580;2023-12-14T10:10:38;101336.69;;;10.79;100.00
35806;BME280;21925;44.608;11.580;2023-12-14T10:13:05;101344.03;;;10.66;100.00
35806;BME280;21925;44.608;11.580;2023-12-14T10:15:43;101334.03;;;10.70;100.00
35806;BME280;21925;44.608;11.580;2023-12-14T10:18:09;101336.66;;;10.87;100.00
35806;BME280;21925;44.608;11.580;2023-12-14T10:20:35;101335.69;;;10.83;100.00
35806;BME280;21925;44.608;11.580;2023-12-14T10:23:07;101339.13;;;10.80;100.00
35806;BME280;21925;44.608;11.580;2023-12-14T10:25:33;101346.97;;;10.90;100.00
35806;BME280;21925;44.608;11.580;2023-12-14T10:27:59;101351.59;;;10.98;100.00
35806;BME280;21925;44.608;11.580;2023-12-14T10:30:26;101327.75;;;10.90;100.00
35806;BME280;21925;44.608;11.580;2023-12-14T10:32:54;101349.22;;;10.88;100.00
35806;BME280;21925;44.608;11.580;2023-12-14T10:35:19;101338.03;;;10.93;100.00
35806;BME280;21925;44.608;11.580;2023-12-14T10:37:49;101355.72;;;11.04;100.00
35806;BME280;21925;44.608;11.580;2023-12-14T10:40:16;101346.88;;;10.99;100.00
35806;BME280;21925;44.608;11.580;2023-12-14T10:42:44;101341.53;;;11.02;100.00
35806;BME280;21925;44.608;11.580;2023-12-14T10:45:12;101345.06;;;11.03;100.00
35806;BME280;21925;44.608;11.580;2023-12-14T10:47:45;101334.09;;;11.03;100.00
35806;BME280;21925;44.608;11.580;2023-12-14T10:50:12;101348.50;;;11.00;100.00
35806;BME280;21925;44.608;11.580;2023-12-14T10:52:39;101345.41;;;11.01;100.00
35806;BME280;21925;44.608;11.580;2023-12-14T10:55:22;101349.41;;;11.04;100.00
35806;BME280;21925;44.608;11.580;2023-12-14T10:57:52;101346.75;;;10.95;100.00
35806;BME280;21925;44.608;11.580;2023-12-14T11:00:18;101351.84;;;11.05;100.00
35806;BME280;21925;44.608;11.580;2023-12-14T11:02:46;101352.28;;;11.07;100.00
35806;BME280;21925;44.608;11.580;2023-12-14T11:05:13;101358.66;;;10.99;100.00
35806;BME280;21925;44.608;11.580;2023-12-14T11:07:48;101361.47;;;11.11;100.00
35806;BME280;21925;44.608;11.580;2023-12-14T11:10:15;101359.59;;;11.23;100.00
35806;BME280;21925;44.608;11.580;2023-12-14T11:13:04;101358.97;;;11.38;100.00
35806;BME280;21925;44.608;11.580;2023-12-14T11:15:34;101358.63;;;11.40;100.00
35806;BME280;21925;44.608;11.580;2023-12-14T11:23:14;101366.81;;;11.28;100.00
35806;BME280;21925;44.608;11.580;2023-12-14T11:25:42;101348.97;;;11.22;100.00
35806;BME280;21925;44.608;11.580;2023-12-14T11:28:08;101357.63;;;11.24;100.00
35806;BME280;21925;44.608;11.580;2023-12-14T11:30:35;101355.63;;;11.12;100.00
35806;BME280;21925;44.608;11.580;2023-12-14T11:33:02;101360.13;;;11.17;100.00
35806;BME280;21925;44.608;11.580;2023-12-14T11:35:29;101363.22;;;11.48;100.00
35806;BME280;21925;44.608;11.580;2023-12-14T11:37:56;101364.44;;;11.38;100.00
35806;BME280;21925;44.608;11.580;2023-12-14T11:40:24;101352.38;;;11.19;100.00
35806;BME280;21925;44.608;11.580;2023-12-14T11:43:02;101355.22;;;11.43;100.00
35806;BME280;21925;44.608;11.580;2023-12-14T11:45:36;101364.03;;;11.69;100.00
35806;BME280;21925;44.608;11.580;2023-12-14T11:48:03;101355.47;;;11.50;100.00
35806;BME280;21925;44.608;11.580;2023-12-14T11:50:51;101368.59;;;11.44;100.00
35806;BME280;21925;44.608;11.580;2023-12-14T11:53:17;101368.28;;;11.46;100.00
35806;BME280;21925;44.608;11.580;2023-12-14T11:55:44;101364.66;;;11.54;100.00
35806;BME280;21925;44.608;11.580;2023-12-14T11:58:15;101374.03;;;11.32;100.00
35806;BME280;21925;44.608;11.580;2023-12-14T12:00:41;101359.06;;;11.30;100.00
35806;BME280;21925;44.608;11.580;2023-12-14T12:03:20;101383.63;;;11.47;100.00
35806;BME280;21925;44.608;11.580;2023-12-14T12:05:51;101382.44;;;11.48;100.00
35806;BME280;21925;44.608;11.580;2023-12-14T12:08:19;101377.16;;;11.43;100.00
35806;BME280;21925;44.608;11.580;2023-12-14T12:10:47;101380.03;;;11.46;100.00
35806;BME280;21925;44.608;11.580;2023-12-14T12:13:16;101357.06;;;11.51;100.00
35806;BME280;21925;44.608;11.580;2023-12-14T12:15:42;101375.03;;;11.81;100.00
35806;BME280;21925;44.608;11.580;2023-12-14T12:18:10;101376.81;;;11.65;100.00
35806;BME280;21925;44.608;11.580;2023-12-14T12:20:36;101370.41;;;11.61;100.00
35806;BME280;21925;44.608;11.580;2023-12-14T12:23:02;101373.22;;;11.52;100.00
35806;BME280;21925;44.608;11.580;2023-12-14T12:25:31;101369.06;;;11.46;100.00
35806;BME280;21925;44.608;11.580;2023-12-14T12:27:58;101371.09;;;11.37;100.00
35806;BME280;21925;44.608;11.580;2023-12-14T12:30:24;101388.41;;;11.50;100.00
35806;BME280;21925;44.608;11.580;2023-12-14T12:32:50;101366.44;;;11.50;100.00
35806;BME280;21925;44.608;11.580;2023-12-14T12:35:20;101393.53;;;11.72;100.00
35806;BME280;21925;44.608;11.580;2023-12-14T12:37:46;101366.44;;;11.50;100.00
35806;BME280;21925;44.608;11.580;2023-12-14T12:40:12;101391.69;;;11.64;100.00
35806;BME280;21925;44.608;11.580;2023-12-14T12:42:38;101392.66;;;11.80;100.00
35806;BME280;21925;44.608;11.580;2023-12-14T12:45:08;101392.66;;;11.80;100.00